Time;durP1;ratioP1;P1;durP2;ratioP2;P2;SDS_P1;SDS_P2;PMS_P1;PMS_P2;Temp;Humidity;BMP_temperature;BMP_pressure;BME280_temperature;BME280_humidity;BME280_pressure;Samples;Min_cycle;Max_cycle;Signal;HPM_P1;HPM_P2
2023/05/20 00:00:19;;;;;;;5.63;2.28;;;;;;;;;;5039860;28;20091;-64
2023/05/20 00:02:45;;;;;;;6.55;2.20;;;;;;;;;;5054185;28;20025;-69
2023/05/20 00:05:10;;;;;;;5.03;2.25;;;;;;;;;;5053942;28;20035;-64
2023/05/20 00:07:36;;;;;;;4.72;2.40;;;;;;;;;;5053716;28;20060;-67
2023/05/20 00:10:01;;;;;;;10.15;2.60;;;;;;;;;;5053855;28;20477;-66
2023/05/20 00:12:27;;;;;;;6.93;2.97;;;;;;;;;;5053968;28;20100;-67
2023/05/20 00:14:52;;;;;;;5.13;2.60;;;;;;;;;;5053990;28;20032;-66
2023/05/20 00:17:18;;;;;;;7.32;4.03;;;;;;;;;;5053961;28;20035;-65
2023/05/20 00:19:43;;;;;;;12.20;5.05;;;;;;;;;;5053632;28;20120;-66
2023/05/20 00:22:09;;;;;;;8.65;4.90;;;;;;;;;;5044894;28;20053;-64
2023/05/20 00:24:34;;;;;;;6.13;3.10;;;;;;;;;;5033913;28;20075;-66
2023/05/20 00:26:59;;;;;;;7.28;3.20;;;;;;;;;;5033797;28;20032;-66
2023/05/20 00:29:25;;;;;;;7.22;2.58;;;;;;;;;;5052743;28;20021;-64
2023/05/20 00:31:50;;;;;;;6.70;2.55;;;;;;;;;;5052256;28;20025;-64
2023/05/20 00:34:16;;;;;;;5.82;2.92;;;;;;;;;;5045679;28;20177;-64
2023/05/20 00:36:41;;;;;;;7.75;3.33;;;;;;;;;;5033501;28;20540;-64
2023/05/20 00:39:07;;;;;;;4.85;2.65;;;;;;;;;;5033249;28;20041;-67
2023/05/20 00:41:32;;;;;;;4.80;2.40;;;;;;;;;;5033520;28;20025;-73
2023/05/20 00:43:58;;;;;;;7.15;2.90;;;;;;;;;;5033332;28;20479;-66
2023/05/20 00:46:26;;;;;;;6.13;2.65;;;;;;;;;;5033513;28;20037;-69
2023/05/20 00:48:52;;;;;;;7.28;2.20;;;;;;;;;;5033123;28;20025;-68
2023/05/20 00:51:17;;;;;;;4.93;1.90;;;;;;;;;;5033199;28;20383;-73
2023/05/20 00:53:43;;;;;;;3.75;1.98;;;;;;;;;;5033459;28;20025;-71
2023/05/20 00:56:09;;;;;;;5.97;2.33;;;;;;;;;;5033488;28;20029;-72
2023/05/20 00:58:36;;;;;;;3.70;2.10;;;;;;;;;;5033158;28;20467;-68
2023/05/20 01:01:02;;;;;;;7.30;2.00;;;;;;;;;;5033200;28;20446;-65
2023/05/20 01:03:28;;;;;;;6.47;2.10;;;;;;;;;;5033048;28;20121;-71
2023/05/20 01:05:54;;;;;;;4.30;2.17;;;;;;;;;;5031825;28;20083;-68
2023/05/20 01:08:21;;;;;;;3.78;2.15;;;;;;;;;;5033085;28;20436;-68
2023/05/20 01:10:50;;;;;;;7.40;2.33;;;;;;;;;;5032964;28;20514;-71
2023/05/20 01:13:20;;;;;;;6.97;2.22;;;;;;;;;;5033052;28;20030;-67
2023/05/20 01:15:47;;;;;;;5.43;2.55;;;;;;;;;;5031675;28;20040;-68
2023/05/20 01:18:17;;;;;;;3.72;2.10;;;;;;;;;;5033159;28;20037;-68
2023/05/20 01:20:46;;;;;;;8.55;2.30;;;;;;;;;;5032903;28;20036;-66
2023/05/20 01:23:12;;;;;;;5.50;2.28;;;;;;;;;;5032632;28;20018;-65
2023/05/20 01:25:37;;;;;;;4.85;2.50;;;;;;;;;;5032781;28;20470;-69
2023/05/20 01:28:03;;;;;;;3.58;2.20;;;;;;;;;;5032747;28;20160;-65
2023/05/20 01:30:34;;;;;;;5.97;2.50;;;;;;;;;;5032517;28;20041;-71
2023/05/20 01:33:08;;;;;;;5.75;2.85;;;;;;;;;;5032888;28;20460;-67
2023/05/20 01:35:33;;;;;;;4.38;2.47;;;;;;;;;;5032731;28;20037;-68
2023/05/20 01:38:00;;;;;;;5.38;2.30;;;;;;;;;;5032319;28;20017;-68
2023/05/20 01:40:27;;;;;;;9.70;2.55;;;;;;;;;;5032399;28;20041;-65
2023/05/20 01:42:54;;;;;;;5.93;2.38;;;;;;;;;;5031460;28;20045;-71
2023/05/20 01:45:20;;;;;;;5.13;2.45;;;;;;;;;;5030926;28;20042;-66
2023/05/20 01:47:45;;;;;;;6.60;2.28;;;;;;;;;;5031279;28;20026;-64
2023/05/20 01:50:11;;;;;;;5.43;2.17;;;;;;;;;;5032553;28;20076;-65
2023/05/20 01:52:36;;;;;;;4.03;2.60;;;;;;;;;;5032528;28;20033;-65
2023/05/20 01:55:02;;;;;;;3.83;2.28;;;;;;;;;;5032478;28;20053;-66
2023/05/20 01:57:27;;;;;;;5.55;2.60;;;;;;;;;;5031213;28;20037;-65
2023/05/20 01:59:53;;;;;;;6.30;2.65;;;;;;;;;;5032239;28;20026;-65
2023/05/20 02:02:18;;;;;;;4.75;2.20;;;;;;;;;;5032528;28;20105;-65
2023/05/20 02:04:47;;;;;;;6.32;3.50;;;;;;;;;;5035364;28;20029;-64
2023/05/20 02:07:14;;;;;;;6.85;4.70;;;;;;;;;;5036434;28;20033;-64
2023/05/20 02:09:40;;;;;;;5.35;3.28;;;;;;;;;;5036520;28;20029;-64
2023/05/20 02:12:06;;;;;;;7.25;3.00;;;;;;;;;;5036384;28;20032;-67
2023/05/20 02:14:32;;;;;;;7.70;2.80;;;;;;;;;;5036137;28;20104;-65
2023/05/20 02:16:57;;;;;;;5.47;2.63;;;;;;;;;;5036403;28;20103;-66
2023/05/20 02:19:23;;;;;;;4.60;2.60;;;;;;;;;;5036497;28;20029;-67
2023/05/20 02:21:49;;;;;;;5.90;2.42;;;;;;;;;;5036128;28;20021;-64
2023/05/20 02:24:15;;;;;;;6.30;2.83;;;;;;;;;;5036249;28;20030;-64
2023/05/20 02:26:41;;;;;;;6.70;2.90;;;;;;;;;;5036086;28;20116;-65
2023/05/20 02:29:07;;;;;;;3.58;2.22;;;;;;;;;;5035869;28;20485;-65
2023/05/20 02:31:32;;;;;;;6.30;2.83;;;;;;;;;;5036098;28;20105;-66
2023/05/20 02:33:57;;;;;;;8.35;3.00;;;;;;;;;;5035907;28;20475;-64
2023/05/20 02:36:23;;;;;;;10.18;2.92;;;;;;;;;;5035783;28;20109;-66
2023/05/20 02:38:48;;;;;;;6.65;2.67;;;;;;;;;;5035786;28;20429;-65
2023/05/20 02:41:14;;;;;;;5.10;2.40;;;;;;;;;;5035799;28;20390;-64
2023/05/20 02:43:40;;;;;;;5.85;2.30;;;;;;;;;;5035323;28;20539;-64
2023/05/20 02:46:05;;;;;;;3.38;2.40;;;;;;;;;;5035781;28;20116;-65
2023/05/20 02:48:31;;;;;;;6.53;2.85;;;;;;;;;;5035725;28;20463;-65
2023/05/20 02:50:58;;;;;;;5.18;2.40;;;;;;;;;;5035543;28;20017;-66
2023/05/20 02:53:23;;;;;;;4.93;2.42;;;;;;;;;;5035743;28;20432;-65
2023/05/20 02:55:49;;;;;;;6.72;2.33;;;;;;;;;;5035624;28;20068;-65
2023/05/20 02:58:16;;;;;;;4.05;2.63;;;;;;;;;;5035374;28;20352;-65
2023/05/20 03:00:41;;;;;;;3.60;2.50;;;;;;;;;;5035497;28;20029;-68
2023/05/20 03:03:08;;;;;;;4.07;2.30;;;;;;;;;;5035555;28;20502;-65
2023/05/20 03:05:37;;;;;;;4.15;2.47;;;;;;;;;;5035170;28;20371;-64
2023/05/20 03:08:08;;;;;;;4.72;2.60;;;;;;;;;;5035503;28;20029;-65
2023/05/20 03:10:35;;;;;;;6.72;2.65;;;;;;;;;;5035326;28;20032;-64
2023/05/20 03:13:00;;;;;;;4.75;2.63;;;;;;;;;;5034936;28;20061;-65
2023/05/20 03:15:26;;;;;;;4.60;2.50;;;;;;;;;;5033937;28;20107;-64
2023/05/20 03:17:51;;;;;;;3.83;2.40;;;;;;;;;;5033986;28;20026;-66
2023/05/20 03:20:17;;;;;;;4.32;2.30;;;;;;;;;;5035155;28;20100;-66
2023/05/20 03:22:42;;;;;;;5.38;2.58;;;;;;;;;;5035032;28;20025;-67
2023/05/20 03:25:08;;;;;;;5.22;2.47;;;;;;;;;;5034892;28;20040;-70
2023/05/20 03:27:35;;;;;;;5.68;2.60;;;;;;;;;;5034960;28;20109;-64
2023/05/20 03:30:02;;;;;;;6.38;2.63;;;;;;;;;;5035053;28;20030;-66
2023/05/20 03:32:27;;;;;;;9.38;3.17;;;;;;;;;;5034964;28;20025;-65
2023/05/20 03:34:53;;;;;;;7.03;4.55;;;;;;;;;;5035117;28;20029;-65
2023/05/20 03:37:19;;;;;;;7.55;4.63;;;;;;;;;;5034572;28;20021;-66
2023/05/20 03:39:44;;;;;;;5.05;3.08;;;;;;;;;;5034645;28;20032;-65
2023/05/20 03:42:10;;;;;;;6.25;2.80;;;;;;;;;;5034499;28;20159;-64
2023/05/20 03:44:35;;;;;;;4.63;2.63;;;;;;;;;;5034397;28;20450;-65
2023/05/20 03:47:00;;;;;;;4.10;2.42;;;;;;;;;;5034717;28;20033;-66
2023/05/20 03:49:26;;;;;;;8.40;2.40;;;;;;;;;;5034618;28;20155;-67
2023/05/20 03:51:51;;;;;;;6.63;2.60;;;;;;;;;;5034446;28;20122;-65
2023/05/20 03:54:17;;;;;;;7.00;2.63;;;;;;;;;;5034495;28;20021;-67
2023/05/20 03:56:42;;;;;;;3.33;2.50;;;;;;;;;;5034340;28;20021;-64
2023/05/20 03:59:09;;;;;;;4.20;2.28;;;;;;;;;;5034469;28;20110;-64
2023/05/20 04:01:34;;;;;;;3.67;2.10;;;;;;;;;;5034342;28;20025;-65
2023/05/20 04:04:00;;;;;;;5.05;2.72;;;;;;;;;;5034334;28;20040;-64
2023/05/20 04:06:25;;;;;;;3.55;2.30;;;;;;;;;;5034279;28;20026;-65
2023/05/20 04:08:52;;;;;;;5.10;2.42;;;;;;;;;;5034360;28;20041;-65
2023/05/20 04:11:17;;;;;;;4.53;2.17;;;;;;;;;;5033862;28;20044;-65
2023/05/20 04:13:43;;;;;;;6.30;2.65;;;;;;;;;;5034041;28;20033;-65
2023/05/20 04:16:08;;;;;;;5.68;2.50;;;;;;;;;;5034125;28;20033;-66
2023/05/20 04:18:37;;;;;;;3.55;2.20;;;;;;;;;;5034046;28;20029;-69
2023/05/20 04:21:03;;;;;;;6.40;2.55;;;;;;;;;;5032639;28;20490;-74
2023/05/20 04:23:29;;;;;;;5.18;2.47;;;;;;;;;;5033992;28;20029;-72
2023/05/20 04:25:55;;;;;;;7.40;2.33;;;;;;;;;;5033110;28;20464;-73
2023/05/20 04:28:22;;;;;;;10.80;3.10;;;;;;;;;;5033901;28;20033;-73
2023/05/20 04:30:48;;;;;;;4.35;2.40;;;;;;;;;;5033585;28;20017;-73
2023/05/20 04:33:15;;;;;;;4.88;2.45;;;;;;;;;;5033758;28;20386;-74
2023/05/20 04:35:40;;;;;;;6.03;2.80;;;;;;;;;;5033741;28;20425;-70
2023/05/20 04:38:07;;;;;;;8.55;3.03;;;;;;;;;;5033420;28;20025;-68
2023/05/20 04:40:32;;;;;;;4.97;2.60;;;;;;;;;;5033321;28;20083;-65
2023/05/20 04:43:01;;;;;;;6.60;2.60;;;;;;;;;;5033502;28;20105;-69
2023/05/20 04:45:26;;;;;;;4.85;2.53;;;;;;;;;;5033413;28;20407;-66
2023/05/20 04:47:52;;;;;;;4.47;2.70;;;;;;;;;;5033242;28;20022;-69
2023/05/20 04:50:18;;;;;;;4.50;2.60;;;;;;;;;;5033306;28;20032;-70
2023/05/20 04:52:44;;;;;;;4.82;2.47;;;;;;;;;;5033395;28;20029;-67
2023/05/20 04:55:11;;;;;;;5.57;2.83;;;;;;;;;;5033101;28;20033;-64
2023/05/20 04:57:40;;;;;;;4.82;2.53;;;;;;;;;;5033355;28;20107;-69
2023/05/20 05:00:07;;;;;;;5.53;2.80;;;;;;;;;;5033312;28;20180;-66
2023/05/20 05:02:34;;;;;;;4.47;2.75;;;;;;;;;;5033178;28;20029;-68
2023/05/20 05:04:59;;;;;;;3.95;2.42;;;;;;;;;;5033201;28;20120;-68
2023/05/20 05:07:25;;;;;;;4.90;2.60;;;;;;;;;;5033137;28;20183;-67
2023/05/20 05:09:50;;;;;;;5.80;2.83;;;;;;;;;;5032854;28;20032;-65
2023/05/20 05:12:15;;;;;;;6.18;2.55;;;;;;;;;;5033272;28;20025;-70
2023/05/20 05:14:41;;;;;;;5.40;2.92;;;;;;;;;;5031687;28;20099;-69
2023/05/20 05:17:06;;;;;;;6.07;2.80;;;;;;;;;;5032939;28;20463;-67
2023/05/20 05:19:32;;;;;;;5.15;2.80;;;;;;;;;;5032892;28;20129;-67
2023/05/20 05:21:57;;;;;;;7.15;2.60;;;;;;;;;;5032729;28;20490;-63
2023/05/20 05:24:23;;;;;;;7.55;2.90;;;;;;;;;;5032669;28;20036;-66
2023/05/20 05:26:53;;;;;;;4.05;2.50;;;;;;;;;;5032733;28;20052;-64
2023/05/20 05:29:18;;;;;;;5.43;2.70;;;;;;;;;;5032832;28;20352;-67
2023/05/20 05:31:43;;;;;;;6.68;2.75;;;;;;;;;;5032774;28;20041;-65
2023/05/20 05:34:09;;;;;;;10.32;2.95;;;;;;;;;;5031548;28;20025;-64
2023/05/20 05:36:34;;;;;;;7.75;3.05;;;;;;;;;;5032602;28;20040;-69
2023/05/20 05:39:00;;;;;;;4.65;2.72;;;;;;;;;;5031376;28;20112;-64
2023/05/20 05:41:25;;;;;;;4.55;2.78;;;;;;;;;;5032700;28;20160;-68
2023/05/20 05:43:51;;;;;;;5.15;2.63;;;;;;;;;;5032581;28;20207;-63
2023/05/20 05:46:17;;;;;;;6.05;3.10;;;;;;;;;;5032482;28;20052;-65
2023/05/20 05:48:47;;;;;;;3.60;2.35;;;;;;;;;;5032574;28;20467;-65
2023/05/20 05:51:13;;;;;;;;;;;;;;;;;;5032897;28;20092;-63
2023/05/20 05:53:38;;;;;;;6.55;2.95;;;;;;;;;;5032302;28;19940;-63
2023/05/20 05:56:04;;;;;;;5.00;2.55;;;;;;;;;;5032656;28;20463;-64
2023/05/20 05:58:30;;;;;;;4.53;2.85;;;;;;;;;;5032412;28;20029;-63
2023/05/20 06:00:56;;;;;;;4.55;3.15;;;;;;;;;;5032536;28;20026;-65
2023/05/20 06:03:21;;;;;;;8.60;2.78;;;;;;;;;;5032612;28;20022;-68
2023/05/20 06:05:47;;;;;;;4.18;2.80;;;;;;;;;;5032275;28;20095;-63
2023/05/20 06:08:12;;;;;;;7.78;3.10;;;;;;;;;;5032493;28;20036;-71
2023/05/20 06:10:38;;;;;;;4.55;2.78;;;;;;;;;;5032407;28;20026;-72
2023/05/20 06:13:03;;;;;;;4.38;2.78;;;;;;;;;;5032312;28;20024;-69
2023/05/20 06:15:28;;;;;;;4.80;2.75;;;;;;;;;;5032408;28;20049;-69
2023/05/20 06:17:54;;;;;;;5.20;2.45;;;;;;;;;;5032323;28;20514;-71
2023/05/20 06:20:19;;;;;;;5.05;2.78;;;;;;;;;;5032083;28;20029;-65
2023/05/20 06:22:45;;;;;;;3.95;2.70;;;;;;;;;;5032186;28;20033;-71
2023/05/20 06:25:11;;;;;;;6.05;2.80;;;;;;;;;;5030918;28;20034;-71
2023/05/20 06:27:37;;;;;;;5.85;2.80;;;;;;;;;;5032170;28;20529;-71
2023/05/20 06:30:03;;;;;;;4.15;2.60;;;;;;;;;;5032227;28;20025;-72
2023/05/20 06:32:28;;;;;;;5.72;2.60;;;;;;;;;;5032287;28;20022;-71
2023/05/20 06:34:53;;;;;;;4.65;2.78;;;;;;;;;;5031794;28;20116;-71
2023/05/20 06:37:19;;;;;;;4.07;2.78;;;;;;;;;;5032112;28;20108;-72
2023/05/20 06:39:46;;;;;;;4.50;2.60;;;;;;;;;;5031805;28;20060;-72
2023/05/20 06:42:11;;;;;;;6.43;2.85;;;;;;;;;;5032245;28;20044;-72
2023/05/20 06:44:37;;;;;;;6.25;3.13;;;;;;;;;;5031986;28;20050;-72
2023/05/20 06:47:02;;;;;;;5.97;2.95;;;;;;;;;;5031881;28;20021;-70
2023/05/20 06:49:28;;;;;;;7.13;2.60;;;;;;;;;;5032697;28;20082;-72
2023/05/20 06:51:53;;;;;;;6.22;2.83;;;;;;;;;;5035807;28;20078;-72
2023/05/20 06:54:19;;;;;;;5.50;2.80;;;;;;;;;;5035604;28;20029;-68
2023/05/20 06:56:44;;;;;;;10.10;3.08;;;;;;;;;;5035670;28;20126;-71
2023/05/20 06:59:10;;;;;;;6.35;3.20;;;;;;;;;;5034328;28;20036;-68
2023/05/20 07:01:35;;;;;;;6.95;2.97;;;;;;;;;;5034114;28;20052;-69
2023/05/20 07:04:01;;;;;;;7.05;3.10;;;;;;;;;;5035098;28;20037;-69
2023/05/20 07:06:26;;;;;;;6.55;3.13;;;;;;;;;;5035349;28;20032;-67
2023/05/20 07:08:51;;;;;;;7.55;3.10;;;;;;;;;;5035482;28;20391;-66
2023/05/20 07:11:17;;;;;;;8.73;3.70;;;;;;;;;;5035329;28;20431;-72
2023/05/20 07:13:42;;;;;;;7.22;3.22;;;;;;;;;;5034546;28;20025;-68
2023/05/20 07:16:08;;;;;;;7.68;3.10;;;;;;;;;;5033784;28;20087;-68
2023/05/20 07:18:33;;;;;;;5.93;3.60;;;;;;;;;;5034896;28;20098;-68
2023/05/20 07:20:59;;;;;;;5.40;3.47;;;;;;;;;;5034996;28;20025;-70
2023/05/20 07:23:24;;;;;;;5.80;3.00;;;;;;;;;;5033636;28;20529;-73
2023/05/20 07:25:50;;;;;;;7.93;3.10;;;;;;;;;;5034885;28;20026;-65
2023/05/20 07:28:18;;;;;;;11.52;3.30;;;;;;;;;;5035028;28;20032;-68
2023/05/20 07:30:48;;;;;;;8.43;3.45;;;;;;;;;;5034856;28;20096;-66
2023/05/20 07:33:15;;;;;;;8.65;3.72;;;;;;;;;;5034753;28;20040;-69
2023/05/20 07:35:41;;;;;;;5.93;2.90;;;;;;;;;;5034947;28;20115;-69
2023/05/20 07:38:06;;;;;;;7.78;3.15;;;;;;;;;;5034423;28;20487;-66
2023/05/20 07:40:32;;;;;;;6.28;3.70;;;;;;;;;;5034663;28;20104;-71
2023/05/20 07:42:57;;;;;;;5.50;3.15;;;;;;;;;;5034550;28;20544;-71
2023/05/20 07:45:23;;;;;;;6.95;3.05;;;;;;;;;;5034680;28;20124;-72
2023/05/20 07:47:48;;;;;;;6.53;3.35;;;;;;;;;;5034485;28;20053;-73
2023/05/20 07:50:14;;;;;;;6.28;3.05;;;;;;;;;;5034551;28;20047;-69
2023/05/20 07:52:39;;;;;;;8.00;3.40;;;;;;;;;;5034662;28;20373;-72
2023/05/20 07:55:05;;;;;;;7.78;3.67;;;;;;;;;;5028433;28;20033;-70
2023/05/20 07:57:30;;;;;;;6.95;3.25;;;;;;;;;;5019853;28;20100;-71
2023/05/20 07:59:56;;;;;;;7.68;3.50;;;;;;;;;;5014563;28;20033;-70
2023/05/20 08:02:21;;;;;;;7.68;3.53;;;;;;;;;;5013382;28;20305;-70
2023/05/20 08:04:47;;;;;;;5.45;3.10;;;;;;;;;;5014442;28;20034;-73
2023/05/20 08:07:12;;;;;;;7.63;3.33;;;;;;;;;;5014477;28;20061;-72
2023/05/20 08:09:37;;;;;;;7.60;3.20;;;;;;;;;;5014344;28;20017;-66
2023/05/20 08:12:03;;;;;;;10.02;3.60;;;;;;;;;;5021314;28;20363;-65
2023/05/20 08:14:28;;;;;;;6.05;3.85;;;;;;;;;;5034482;28;20078;-69
2023/05/20 08:16:54;;;;;;;12.43;4.35;;;;;;;;;;5027271;28;20018;-70
2023/05/20 08:19:19;;;;;;;6.38;3.58;;;;;;;;;;5027720;28;20028;-70
2023/05/20 08:21:45;;;;;;;5.63;3.55;;;;;;;;;;5028653;28;20476;-70
2023/05/20 08:24:11;;;;;;;6.68;3.00;;;;;;;;;;5031281;28;20032;-66
2023/05/20 08:26:36;;;;;;;4.50;2.92;;;;;;;;;;5027732;28;20156;-64
2023/05/20 08:29:01;;;;;;;10.52;3.50;;;;;;;;;;5039008;28;20354;-70
2023/05/20 08:31:27;;;;;;;5.40;3.15;;;;;;;;;;5039051;28;20029;-68
2023/05/20 08:33:52;;;;;;;5.60;2.90;;;;;;;;;;5032791;28;20305;-66
2023/05/20 08:36:18;;;;;;;5.93;3.08;;;;;;;;;;5031771;28;20045;-69
2023/05/20 08:38:45;;;;;;;12.30;3.90;;;;;;;;;;5033077;28;20045;-68
2023/05/20 08:41:10;;;;;;;8.55;3.58;;;;;;;;;;5032442;28;20394;-70
2023/05/20 08:43:36;;;;;;;7.00;3.67;;;;;;;;;;5032277;28;20134;-68
2023/05/20 08:46:04;;;;;;;8.93;3.60;;;;;;;;;;5033321;28;20092;-69
2023/05/20 08:48:30;;;;;;;7.18;3.80;;;;;;;;;;5031304;28;20029;-64
2023/05/20 08:50:56;;;;;;;7.15;3.45;;;;;;;;;;5032589;28;20120;-69
2023/05/20 08:53:33;;;;;;;6.85;3.53;;;;;;;;;;5032735;28;20379;-73
2023/05/20 08:56:02;;;;;;;6.85;3.65;;;;;;;;;;5032787;28;20506;-68
2023/05/20 08:58:31;;;;;;;8.45;3.55;;;;;;;;;;5032558;28;20021;-70
2023/05/20 09:01:00;;;;;;;9.33;3.50;;;;;;;;;;5032470;28;20025;-69
2023/05/20 09:03:26;;;;;;;10.88;3.40;;;;;;;;;;5033224;28;20029;-69
2023/05/20 09:05:53;;;;;;;10.65;4.30;;;;;;;;;;5033025;28;20079;-68
2023/05/20 09:08:19;;;;;;;6.10;3.67;;;;;;;;;;5033163;28;20479;-68
2023/05/20 09:10:44;;;;;;;8.60;3.70;;;;;;;;;;5033165;28;20034;-68
2023/05/20 09:13:10;;;;;;;8.73;4.05;;;;;;;;;;5031554;28;20032;-67
2023/05/20 09:15:36;;;;;;;6.85;3.83;;;;;;;;;;5032797;28;20068;-63
2023/05/20 09:18:03;;;;;;;11.07;3.95;;;;;;;;;;5032893;28;20021;-69
2023/05/20 09:20:33;;;;;;;8.35;4.05;;;;;;;;;;5037682;28;20489;-69
2023/05/20 09:23:02;;;;;;;12.20;4.47;;;;;;;;;;5037482;28;20488;-73
2023/05/20 09:25:28;;;;;;;9.23;4.07;;;;;;;;;;5031986;28;20391;-72
2023/05/20 09:27:54;;;;;;;7.82;4.05;;;;;;;;;;5033038;28;20029;-67
2023/05/20 09:30:20;;;;;;;9.63;4.32;;;;;;;;;;5032376;28;20041;-67
2023/05/20 09:32:56;;;;;;;6.13;3.38;;;;;;;;;;5032714;28;20091;-68
2023/05/20 09:35:22;;;;;;;7.40;3.88;;;;;;;;;;5032693;28;20031;-67
2023/05/20 09:37:52;;;;;;;6.90;3.80;;;;;;;;;;5032452;28;20537;-69
2023/05/20 09:40:22;;;;;;;12.43;4.80;;;;;;;;;;5032930;28;20033;-73
2023/05/20 09:42:53;;;;;;;20.08;6.93;;;;;;;;;;5032798;28;20801;-67
2023/05/20 09:45:21;;;;;;;7.65;4.32;;;;;;;;;;5032220;28;20049;-64
2023/05/20 09:47:48;;;;;;;8.88;3.85;;;;;;;;;;5032779;28;20056;-73
2023/05/20 09:50:14;;;;;;;7.10;4.00;;;;;;;;;;5032550;28;20026;-67
2023/05/20 09:52:40;;;;;;;9.48;4.15;;;;;;;;;;5032471;28;20029;-65
2023/05/20 09:55:06;;;;;;;7.15;3.30;;;;;;;;;;5031138;28;20079;-66
2023/05/20 09:57:36;;;;;;;6.72;3.80;;;;;;;;;;5032615;28;20029;-67
2023/05/20 10:00:04;;;;;;;9.90;3.60;;;;;;;;;;5032174;28;20033;-73
2023/05/20 10:02:30;;;;;;;8.63;4.30;;;;;;;;;;5032343;28;20030;-64
2023/05/20 10:04:57;;;;;;;11.88;4.00;;;;;;;;;;5032347;28;20072;-66
2023/05/20 10:07:35;;;;;;;5.43;3.72;;;;;;;;;;5032264;28;20060;-63
2023/05/20 10:10:26;;;;;;;7.65;4.03;;;;;;;;;;5032160;28;20025;-69
2023/05/20 10:13:00;;;;;;;13.60;5.18;;;;;;;;;;5031874;28;20383;-69
2023/05/20 10:16:12;;;;;;;17.05;4.82;;;;;;;;;;5032353;28;20072;-65
2023/05/20 10:19:14;;;;;;;8.50;4.68;;;;;;;;;;5032395;28;20108;-67
2023/05/20 10:21:40;;;;;;;6.65;4.03;;;;;;;;;;5032053;28;20540;-62
2023/05/20 10:24:07;;;;;;;12.88;5.18;;;;;;;;;;5032429;28;20112;-65
2023/05/20 10:26:40;;;;;;;20.00;6.45;;;;;;;;;;5036047;28;20033;-62
2023/05/20 10:29:18;;;;;;;13.40;5.95;;;;;;;;;;5035877;28;20025;-62
2023/05/20 10:31:48;;;;;;;13.27;5.35;;;;;;;;;;5036227;28;20078;-65
2023/05/20 10:34:19;;;;;;;7.67;4.60;;;;;;;;;;5035918;28;20029;-69
2023/05/20 10:36:53;;;;;;;10.95;4.65;;;;;;;;;;5035787;28;20263;-66
2023/05/20 10:39:26;;;;;;;12.65;4.25;;;;;;;;;;5035771;28;20029;-63
2023/05/20 10:41:51;;;;;;;10.52;4.40;;;;;;;;;;5034411;28;20035;-67
2023/05/20 10:44:17;;;;;;;6.20;4.20;;;;;;;;;;5035783;28;20037;-64
2023/05/20 10:46:42;;;;;;;6.93;3.78;;;;;;;;;;5035732;28;20040;-62
2023/05/20 10:49:21;;;;;;;8.70;3.97;;;;;;;;;;5034488;28;20038;-67
2023/05/20 10:51:46;;;;;;;7.40;3.90;;;;;;;;;;5035744;28;20029;-66
2023/05/20 10:54:13;;;;;;;6.53;4.22;;;;;;;;;;5035598;28;20035;-64
2023/05/20 10:56:49;;;;;;;9.82;4.60;;;;;;;;;;5035310;28;20034;-62
2023/05/20 10:59:14;;;;;;;8.32;4.28;;;;;;;;;;5035505;28;20081;-65
2023/05/20 11:01:41;;;;;;;6.70;4.47;;;;;;;;;;5035484;28;20025;-69
2023/05/20 11:04:07;;;;;;;10.23;3.95;;;;;;;;;;5035520;28;20087;-68
2023/05/20 11:06:36;;;;;;;7.13;3.65;;;;;;;;;;5035544;28;20053;-73
2023/05/20 11:09:05;;;;;;;5.38;3.78;;;;;;;;;;5034409;28;20432;-65
2023/05/20 11:11:31;;;;;;;5.78;3.97;;;;;;;;;;5035186;28;20104;-63
2023/05/20 11:13:56;;;;;;;6.07;3.60;;;;;;;;;;5035433;28;20483;-71
2023/05/20 11:16:22;;;;;;;7.22;3.97;;;;;;;;;;5035242;28;20037;-66
2023/05/20 11:18:49;;;;;;;6.85;3.58;;;;;;;;;;5035228;28;20111;-69
2023/05/20 11:21:14;;;;;;;6.47;4.00;;;;;;;;;;5034463;28;20459;-72
2023/05/20 11:23:40;;;;;;;10.27;4.30;;;;;;;;;;5034801;28;20155;-66
2023/05/20 11:26:06;;;;;;;10.25;3.78;;;;;;;;;;5034658;28;20471;-71
2023/05/20 11:28:34;;;;;;;9.68;3.72;;;;;;;;;;5034941;28;20036;-73
2023/05/20 11:31:00;;;;;;;8.80;4.07;;;;;;;;;;5034952;28;20102;-62
2023/05/20 11:33:26;;;;;;;5.68;3.92;;;;;;;;;;5035015;28;20060;-72
2023/05/20 11:35:53;;;;;;;7.13;4.15;;;;;;;;;;5033759;28;20053;-71
2023/05/20 11:38:20;;;;;;;7.80;4.28;;;;;;;;;;5034530;28;20462;-68
2023/05/20 11:40:50;;;;;;;7.55;4.75;;;;;;;;;;5034483;28;20052;-71
2023/05/20 11:43:15;;;;;;;9.43;4.28;;;;;;;;;;5034540;28;20443;-71
2023/05/20 11:45:44;;;;;;;5.43;3.65;;;;;;;;;;5034613;28;20041;-70
2023/05/20 11:48:11;;;;;;;6.53;4.00;;;;;;;;;;5034742;28;20153;-72
2023/05/20 11:50:41;;;;;;;6.07;3.75;;;;;;;;;;5034622;28;20026;-73
2023/05/20 11:53:13;;;;;;;6.80;3.80;;;;;;;;;;5034549;28;20028;-72
2023/05/20 11:55:51;;;;;;;7.32;3.95;;;;;;;;;;5034355;28;20061;-70
2023/05/20 11:58:35;;;;;;;6.53;3.55;;;;;;;;;;5034433;28;20029;-66
2023/05/20 12:01:00;;;;;;;7.28;3.53;;;;;;;;;;5034375;28;20022;-69
2023/05/20 12:03:26;;;;;;;9.25;4.13;;;;;;;;;;5034157;28;20029;-73
2023/05/20 12:05:52;;;;;;;6.68;3.67;;;;;;;;;;5034223;28;20025;-69
2023/05/20 12:08:17;;;;;;;5.95;3.88;;;;;;;;;;5033835;28;20041;-66
2023/05/20 12:10:43;;;;;;;4.25;2.83;;;;;;;;;;5034130;28;20018;-70
2023/05/20 12:13:11;;;;;;;7.80;2.95;;;;;;;;;;5034134;28;20032;-69
2023/05/20 12:15:37;;;;;;;4.63;3.00;;;;;;;;;;5034081;28;20498;-72
2023/05/20 12:18:03;;;;;;;4.75;3.10;;;;;;;;;;5032913;28;20109;-69
2023/05/20 12:20:30;;;;;;;5.35;3.25;;;;;;;;;;5032875;28;20113;-66
2023/05/20 12:22:56;;;;;;;7.20;3.60;;;;;;;;;;5032450;28;20388;-69
2023/05/20 12:25:22;;;;;;;7.63;3.50;;;;;;;;;;5033760;28;20033;-63
2023/05/20 12:27:49;;;;;;;4.50;3.33;;;;;;;;;;5032493;28;20025;-64
2023/05/20 12:30:16;;;;;;;15.32;3.92;;;;;;;;;;5033836;28;20501;-70
2023/05/20 12:32:43;;;;;;;8.35;3.30;;;;;;;;;;5033645;28;20090;-66
2023/05/20 12:35:09;;;;;;;5.63;3.15;;;;;;;;;;5033720;28;20033;-64
2023/05/20 12:37:36;;;;;;;5.63;3.38;;;;;;;;;;5033380;28;20459;-66
2023/05/20 12:40:07;;;;;;;4.90;3.30;;;;;;;;;;5033646;28;20534;-72
2023/05/20 12:42:34;;;;;;;6.75;3.65;;;;;;;;;;5033555;28;20494;-69
2023/05/20 12:45:00;;;;;;;4.63;3.08;;;;;;;;;;5033113;28;20037;-70
2023/05/20 12:47:25;;;;;;;5.65;3.67;;;;;;;;;;5033226;28;20080;-72
2023/05/20 12:49:50;;;;;;;5.20;3.42;;;;;;;;;;5033450;28;20025;-71
2023/05/20 12:52:16;;;;;;;7.00;3.45;;;;;;;;;;5033034;28;20030;-73
2023/05/20 12:54:41;;;;;;;5.75;3.40;;;;;;;;;;5033536;28;20033;-72
2023/05/20 12:57:07;;;;;;;5.22;3.20;;;;;;;;;;5033315;28;20040;-73
2023/05/20 12:59:32;;;;;;;5.93;3.25;;;;;;;;;;5033340;28;20033;-72
2023/05/20 13:01:58;;;;;;;7.68;4.78;;;;;;;;;;5033380;28;20108;-66
2023/05/20 13:04:23;;;;;;;6.57;3.50;;;;;;;;;;5033219;28;20028;-64
2023/05/20 13:06:49;;;;;;;8.80;3.38;;;;;;;;;;5032890;28;20037;-67
2023/05/20 13:09:15;;;;;;;8.27;3.70;;;;;;;;;;5033095;28;20075;-65
2023/05/20 13:11:40;;;;;;;5.07;3.10;;;;;;;;;;5032953;28;20109;-67
2023/05/20 13:14:06;;;;;;;12.55;3.40;;;;;;;;;;5032993;28;20029;-72
2023/05/20 13:16:31;;;;;;;6.78;3.90;;;;;;;;;;5033032;28;20037;-73
2023/05/20 13:18:57;;;;;;;4.80;3.05;;;;;;;;;;5033002;28;20031;-72
2023/05/20 13:21:22;;;;;;;5.38;3.40;;;;;;;;;;5032698;28;20029;-73
2023/05/20 13:23:48;;;;;;;7.47;3.20;;;;;;;;;;5032636;28;20447;-72
2023/05/20 13:26:13;;;;;;;6.35;3.00;;;;;;;;;;5032891;28;20458;-69
2023/05/20 13:28:38;;;;;;;5.38;3.13;;;;;;;;;;5032806;28;20060;-69
2023/05/20 13:31:05;;;;;;;5.65;3.05;;;;;;;;;;5032847;28;20017;-72
2023/05/20 13:33:31;;;;;;;6.60;3.40;;;;;;;;;;5032811;28;20537;-72
2023/05/20 13:35:56;;;;;;;4.45;3.00;;;;;;;;;;5032391;28;20021;-72
2023/05/20 13:38:21;;;;;;;6.40;3.00;;;;;;;;;;5032456;28;20471;-72
2023/05/20 13:40:47;;;;;;;5.35;3.20;;;;;;;;;;5032553;28;20120;-69
2023/05/20 13:43:13;;;;;;;5.05;3.17;;;;;;;;;;5032481;28;20024;-70
2023/05/20 13:45:38;;;;;;;6.45;2.90;;;;;;;;;;5032760;28;20037;-72
2023/05/20 13:48:04;;;;;;;5.10;3.20;;;;;;;;;;5031998;28;20022;-65
2023/05/20 13:50:30;;;;;;;5.53;3.08;;;;;;;;;;5032377;28;20028;-63
2023/05/20 13:52:55;;;;;;;7.15;3.00;;;;;;;;;;5032548;28;20121;-65
2023/05/20 13:55:20;;;;;;;4.78;3.13;;;;;;;;;;5032614;28;20395;-72
2023/05/20 13:57:46;;;;;;;6.35;3.00;;;;;;;;;;5032419;28;20045;-72
2023/05/20 14:00:12;;;;;;;4.28;2.90;;;;;;;;;;5034661;28;20551;-72
2023/05/20 14:02:38;;;;;;;6.68;2.88;;;;;;;;;;5036828;28;20091;-70
2023/05/20 14:05:04;;;;;;;3.88;2.70;;;;;;;;;;5036322;28;20029;-75
2023/05/20 14:07:30;;;;;;;7.38;3.20;;;;;;;;;;5036527;28;20029;-71
2023/05/20 14:09:55;;;;;;;6.22;2.85;;;;;;;;;;5036318;28;20057;-68
2023/05/20 14:12:23;;;;;;;3.28;2.60;;;;;;;;;;5036385;28;20120;-67
2023/05/20 14:14:48;;;;;;;5.93;2.85;;;;;;;;;;5036473;28;20025;-71
2023/05/20 14:17:14;;;;;;;4.63;2.80;;;;;;;;;;5036057;28;20032;-72
2023/05/20 14:19:39;;;;;;;5.88;2.88;;;;;;;;;;5036043;28;20044;-62
2023/05/20 14:22:04;;;;;;;6.15;2.85;;;;;;;;;;5036088;28;20025;-65
2023/05/20 14:24:30;;;;;;;7.07;4.07;;;;;;;;;;5036237;28;20022;-64
2023/05/20 14:26:55;;;;;;;7.20;4.00;;;;;;;;;;5036177;28;20033;-66
2023/05/20 14:29:21;;;;;;;4.82;2.90;;;;;;;;;;5034699;28;20025;-66
2023/05/20 14:31:46;;;;;;;4.93;2.60;;;;;;;;;;5036120;28;20041;-68
2023/05/20 14:34:12;;;;;;;5.43;2.70;;;;;;;;;;5036016;28;20021;-63
2023/05/20 14:36:38;;;;;;;5.10;3.00;;;;;;;;;;5035834;28;20031;-67
2023/05/20 14:39:03;;;;;;;9.43;2.90;;;;;;;;;;5035702;28;20025;-72